Dansville, NY

11:43 AM EST on March 02, 2015 (GMT -0500)
dansvilleweather.com | Change Station
CLOSE
Current Station
Personal Weather Station
Location: Dansville, NY
Elevation: 760 ft
Nearby Weather Stations

Elev 760 ft 42.56 °N, 77.69 °W | Updated 4 seconds ago

Overcast
Overcast
25.6 °F
Feels Like 12 °F
N
19.0
Wind Variable Wind from NW
Gusts 19.0 mph

Today
High -- | Low -- °F
--% Chance of Precip.
Yesterday
High -- | Low -- °F
Precip. -- in
6:45 AM 6:01 PM
Waxing Gibbous, 92% visible
Pressure 30.32 in
Visibility 10.0 miles
Clouds Overcast 3200 ft
Windchill 12 °F
Dew Point 15 °F
Humidity 64%
Rainfall 0.00 in
Snow Depth Not available.
UV 1 out of 12
Pollen .50 out of 12
Air Quality Not available.
Flu Activity Not available.
METAR KDSV 021554Z AUTO 31013G19KT 10SM OVC032 M04/M11 A3026 RMK AO2 SNB34E46 SLP266 P0000 T10391106

More Conditions Fewer Conditions

Pressure 30.32 in
Visibility 10.0 miles
Clouds Overcast 3200 ft
Windchill 12 °F
Dew Point 15 °F
Humidity 64%
Rainfall 0.00 in
Snow Depth Not available.
UV 1 out of 12
Pollen .50 out of 12
Air Quality Not available.
Flu Activity Not available.
METAR KDSV 021554Z AUTO 31013G19KT 10SM OVC032 M04/M11 A3026 RMK AO2 SNB34E46 SLP266 P0000 T10391106

More Conditions Fewer Conditions

Nowcast | as of 10:03 am EST on March 2, 2015

The short term forecast for western New York. Though snow showers will diminish through the day...a strong westerly wind will bring blowing and drifting of snow through the day. This blowing snow across open areas...may bring spots of snow covered roads with slippery spots...especially on north-south roads.

×

10-Day Weather Forecast

Almanac

Astronomy

Mar. 02, 2015 Rise Set
Actual Time
Civil Twilight
Nautical Twilight
Astronomical Twilight
Moon
Length of Visible Light
Length of Day
Tomorrow will be .
, % of the Moon is Illuminated

Today's Extremes

State Highs State Lows

Community

WunderPhotos

Upload Photos

1,801,837 photos uploaded!

WunderBlogs® & News

Nearby

Air Quality

  Air Quality AQ Index Pollutant
Not available.

Snow Depth

Station Depth Elevation

Earthquake Activity

City Distance Mag. Time & Date
Minimum magnitude displayed is 2.5.

Coastal Water Temperatures

Place Temperature

Nearby Weather Stations